Virgin, Utah
Current Conditions -  °F | °C
As of 5:55 PM on Tuesday 21 Oct 2014 (Local Time) from KAZC Reporting Station
Broken Clouds Broken Clouds  
Wind Chill: 74°   Ceiling: 7500
Heat Index: 74°   Visibility: 10mi
Dew Point: 39°   Wind: 10mph
Humidity: 29%   Direction: 260°W
Pressure: 29.99"   Gusts: NA
Location:  37.21°N, 113.19°W
Report Text: KAZC 212355Z AUTO 26009KT 10SM BKN075 BKN090 23/04 A2999 RMK AO2 LTG DSNT NE T02320040 10388 20011
Loading
Personal Weather Stations






























Interactive Weather Map
Tropical Storm Tracking
New forecast layout! Learn more

10-Day Weather Forecast

Advertisements
Track Severe Weather on mobile